Wichita Mid Continent Airport
KICT : now visible

Airfield :











YOU CAN JOIN US ON...

 
LOGIN :

Register | Disclaimer

   EN    FR    IT 

 









Legend :    VFR   Marginal VFR   IFR   Intensive IFR   Very Intensive IFR
Visi :
Ceiling :
>= 8 km
>= 3000ft
5 to 8 km
1000 to 3000 ft
1500m to 5 km
500 to 1000 ft
800 to 1500m
200 to 500 ft
< 800m
< 200 ft
Symbols :   Thunderstorms  Fog  Heavy snow  Heavy precipitations  Wind > 20 kt







- Airport Elevation : 1333 ft
- IATA code : ICT


KICT - Wichita Mid Continent

CURRENT METAR :
  • 202253Z 14016KT 10SM FEW150 FEW180 FEW220 38/22 A2990 RMK AO2 SLP107 T03780217

EXPIRED METARs :
  • 202153Z 16013KT 10SM FEW150 FEW180 FEW220 39/19 A2991 RMK AO2 SLP107 T03940194
  • 202053Z 17016KT 10SM FEW150 FEW180 FEW220 39/20 A2992 RMK AO2 SLP111 T03940200 58014
  • 201953Z 17013KT 10SM FEW220 39/21 A2994 RMK AO2 SLP118 T03890211

TAF KICT
Valid from the 20 at 18:00 until the 21 at 18:00 UTC


201730Z 2018/2118 19012KT P6SM FEW150
FM210100 16008KT P6SM SCT130
FM211600 18011KT P6SM SCT130
No reported NOTAMs for that airfield.



MET'MAP, your aeronautical weather chart ! - Copyright ORBIFLY December 2007 - Disclaimer

ORBIFLY MET'MAP TEAM :

Programming & Development : Alexandra Zaïnal
Concept & Development : Baudouin d'Aumeries
Co-Development & Prog : Marc-Olivier Méhu
Technical & hardware support : Manuel Goepfert

Contact : metmap@orbifly.com




SOURCES & CREDITS :

   NOAA       Earth
Advisory